sensor_id;sensor_type;location;lat;lon;timestamp;P1;P2;P0
63662;PMS5003;49815;51.618;0.336;2023-02-28T00:00:12;30;26;
63662;PMS5003;49815;51.618;0.336;2023-02-28T00:02:36;46;44;
63662;PMS5003;49815;51.618;0.336;2023-02-28T00:05:02;16;16;
63662;PMS5003;49815;51.618;0.336;2023-02-28T00:07:28;27;27;
63662;PMS5003;49815;51.618;0.336;2023-02-28T00:09:54;28;27;
63662;PMS5003;49815;51.618;0.336;2023-02-28T00:12:20;28;25;
63662;PMS5003;49815;51.618;0.336;2023-02-28T00:14:45;17;17;
63662;PMS5003;49815;51.618;0.336;2023-02-28T00:17:11;17;17;
63662;PMS5003;49815;51.618;0.336;2023-02-28T00:19:36;45;43;
63662;PMS5003;49815;51.618;0.336;2023-02-28T00:22:01;20;18;
63662;PMS5003;49815;51.618;0.336;2023-02-28T00:24:27;22;20;
63662;PMS5003;49815;51.618;0.336;2023-02-28T00:26:52;25;20;
63662;PMS5003;49815;51.618;0.336;2023-02-28T00:29:18;20;20;
63662;PMS5003;49815;51.618;0.336;2023-02-28T00:31:43;30;22;
63662;PMS5003;49815;51.618;0.336;2023-02-28T00:34:08;25;22;
63662;PMS5003;49815;51.618;0.336;2023-02-28T00:36:33;27;24;
63662;PMS5003;49815;51.618;0.336;2023-02-28T00:38:59;24;21;
63662;PMS5003;49815;51.618;0.336;2023-02-28T00:41:24;25;23;
63662;PMS5003;49815;51.618;0.336;2023-02-28T00:43:49;30;30;
63662;PMS5003;49815;51.618;0.336;2023-02-28T00:46:15;29;27;
63662;PMS5003;49815;51.618;0.336;2023-02-28T00:48:41;34;26;
63662;PMS5003;49815;51.618;0.336;2023-02-28T00:51:06;23;23;
63662;PMS5003;49815;51.618;0.336;2023-02-28T00:53:31;32;30;
63662;PMS5003;49815;51.618;0.336;2023-02-28T00:55:57;35;34;
63662;PMS5003;49815;51.618;0.336;2023-02-28T00:58:21;42;39;
63662;PMS5003;49815;51.618;0.336;2023-02-28T01:00:47;52;47;
63662;PMS5003;49815;51.618;0.336;2023-02-28T01:03:13;30;26;
63662;PMS5003;49815;51.618;0.336;2023-02-28T01:05:38;39;35;
63662;PMS5003;49815;51.618;0.336;2023-02-28T01:08:04;32;32;
63662;PMS5003;49815;51.618;0.336;2023-02-28T01:10:29;30;29;
63662;PMS5003;49815;51.618;0.336;2023-02-28T01:12:55;33;27;
63662;PMS5003;49815;51.618;0.336;2023-02-28T01:15:20;29;26;
63662;PMS5003;49815;51.618;0.336;2023-02-28T01:17:45;34;34;
63662;PMS5003;49815;51.618;0.336;2023-02-28T01:20:11;39;35;
63662;PMS5003;49815;51.618;0.336;2023-02-28T01:22:37;38;38;
63662;PMS5003;49815;51.618;0.336;2023-02-28T01:25:02;48;44;
63662;PMS5003;49815;51.618;0.336;2023-02-28T01:27:28;34;33;
63662;PMS5003;49815;51.618;0.336;2023-02-28T01:29:53;38;36;
63662;PMS5003;49815;51.618;0.336;2023-02-28T01:32:19;43;31;
63662;PMS5003;49815;51.618;0.336;2023-02-28T01:34:44;39;36;
63662;PMS5003;49815;51.618;0.336;2023-02-28T01:37:10;35;33;
63662;PMS5003;49815;51.618;0.336;2023-02-28T01:39:36;34;32;
63662;PMS5003;49815;51.618;0.336;2023-02-28T01:42:01;35;35;
63662;PMS5003;49815;51.618;0.336;2023-02-28T01:46:52;31;31;
63662;PMS5003;49815;51.618;0.336;2023-02-28T01:49:17;40;38;
63662;PMS5003;49815;51.618;0.336;2023-02-28T01:51:44;39;37;
63662;PMS5003;49815;51.618;0.336;2023-02-28T01:54:08;43;39;
63662;PMS5003;49815;51.618;0.336;2023-02-28T01:56:34;43;41;
63662;PMS5003;49815;51.618;0.336;2023-02-28T01:58:59;33;33;
63662;PMS5003;49815;51.618;0.336;2023-02-28T02:01:25;39;39;
63662;PMS5003;49815;51.618;0.336;2023-02-28T02:03:51;43;43;
63662;PMS5003;49815;51.618;0.336;2023-02-28T02:06:15;42;36;
63662;PMS5003;49815;51.618;0.336;2023-02-28T02:08:41;30;29;
63662;PMS5003;49815;51.618;0.336;2023-02-28T02:11:07;27;26;
63662;PMS5003;49815;51.618;0.336;2023-02-28T02:13:37;35;35;
63662;PMS5003;49815;51.618;0.336;2023-02-28T02:16:00;30;30;
63662;PMS5003;49815;51.618;0.336;2023-02-28T02:18:24;26;26;
63662;PMS5003;49815;51.618;0.336;2023-02-28T02:25:39;42;42;
63662;PMS5003;49815;51.618;0.336;2023-02-28T02:30:35;42;42;
63662;PMS5003;49815;51.618;0.336;2023-02-28T02:33:03;43;40;
63662;PMS5003;49815;51.618;0.336;2023-02-28T02:35:20;48;47;
63662;PMS5003;49815;51.618;0.336;2023-02-28T02:37:47;72;68;
63662;PMS5003;49815;51.618;0.336;2023-02-28T02:40:11;61;59;
63662;PMS5003;49815;51.618;0.336;2023-02-28T02:42:38;79;79;
63662;PMS5003;49815;51.618;0.336;2023-02-28T02:45:01;161;151;
63662;PMS5003;49815;51.618;0.336;2023-02-28T02:47:27;163;157;
63662;PMS5003;49815;51.618;0.336;2023-02-28T02:49:52;135;129;
63662;PMS5003;49815;51.618;0.336;2023-02-28T02:52:18;126;125;
63662;PMS5003;49815;51.618;0.336;2023-02-28T02:54:43;146;146;
63662;PMS5003;49815;51.618;0.336;2023-02-28T02:57:10;66;65;
63662;PMS5003;49815;51.618;0.336;2023-02-28T02:59:34;93;93;
63662;PMS5003;49815;51.618;0.336;2023-02-28T03:01:59;89;88;
63662;PMS5003;49815;51.618;0.336;2023-02-28T03:04:26;116;115;
63662;PMS5003;49815;51.618;0.336;2023-02-28T03:06:50;111;111;
63662;PMS5003;49815;51.618;0.336;2023-02-28T03:09:16;41;41;
63662;PMS5003;49815;51.618;0.336;2023-02-28T03:11:41;7;7;
63662;PMS5003;49815;51.618;0.336;2023-02-28T03:14:10;10;8;
63662;PMS5003;49815;51.618;0.336;2023-02-28T03:16:40;12;11;
63662;PMS5003;49815;51.618;0.336;2023-02-28T03:19:01;16;11;
63662;PMS5003;49815;51.618;0.336;2023-02-28T03:21:25;10;10;
63662;PMS5003;49815;51.618;0.336;2023-02-28T03:23:52;14;10;
63662;PMS5003;49815;51.618;0.336;2023-02-28T03:26:17;12;9;
63662;PMS5003;49815;51.618;0.336;2023-02-28T03:28:42;12;11;
63662;PMS5003;49815;51.618;0.336;2023-02-28T03:31:08;12;11;
63662;PMS5003;49815;51.618;0.336;2023-02-28T03:33:34;9;9;
63662;PMS5003;49815;51.618;0.336;2023-02-28T03:35:59;15;12;
63662;PMS5003;49815;51.618;0.336;2023-02-28T03:38:27;10;9;
63662;PMS5003;49815;51.618;0.336;2023-02-28T03:40:50;14;10;
63662;PMS5003;49815;51.618;0.336;2023-02-28T03:43:17;16;10;
63662;PMS5003;49815;51.618;0.336;2023-02-28T03:45:41;12;10;
63662;PMS5003;49815;51.618;0.336;2023-02-28T03:48:07;14;12;
63662;PMS5003;49815;51.618;0.336;2023-02-28T03:50:34;14;12;
63662;PMS5003;49815;51.618;0.336;2023-02-28T03:53:04;10;9;
63662;PMS5003;49815;51.618;0.336;2023-02-28T03:55:24;7;7;
63662;PMS5003;49815;51.618;0.336;2023-02-28T03:57:52;12;9;
63662;PMS5003;49815;51.618;0.336;2023-02-28T04:02:41;7;7;
63662;PMS5003;49815;51.618;0.336;2023-02-28T04:05:07;14;12;
63662;PMS5003;49815;51.618;0.336;2023-02-28T04:07:33;11;9;
63662;PMS5003;49815;51.618;0.336;2023-02-28T04:09:59;11;10;
63662;PMS5003;49815;51.618;0.336;2023-02-28T04:12:24;15;11;
63662;PMS5003;49815;51.618;0.336;2023-02-28T04:14:49;7;7;
63662;PMS5003;49815;51.618;0.336;2023-02-28T04:17:14;8;8;
63662;PMS5003;49815;51.618;0.336;2023-02-28T04:19:40;10;10;
63662;PMS5003;49815;51.618;0.336;2023-02-28T04:22:07;9;7;
63662;PMS5003;49815;51.618;0.336;2023-02-28T04:24:31;9;7;
63662;PMS5003;49815;51.618;0.336;2023-02-28T04:26:57;11;9;
63662;PMS5003;49815;51.618;0.336;2023-02-28T04:29:22;10;10;
63662;PMS5003;49815;51.618;0.336;2023-02-28T04:31:47;10;7;
63662;PMS5003;49815;51.618;0.336;2023-02-28T04:34:12;12;10;
63662;PMS5003;49815;51.618;0.336;2023-02-28T04:36:37;10;7;
63662;PMS5003;49815;51.618;0.336;2023-02-28T04:39:03;9;9;
63662;PMS5003;49815;51.618;0.336;2023-02-28T04:41:29;10;9;
63662;PMS5003;49815;51.618;0.336;2023-02-28T04:43:55;13;10;
63662;PMS5003;49815;51.618;0.336;2023-02-28T04:46:20;9;9;
63662;PMS5003;49815;51.618;0.336;2023-02-28T04:48:45;11;9;
63662;PMS5003;49815;51.618;0.336;2023-02-28T04:51:12;14;8;
63662;PMS5003;49815;51.618;0.336;2023-02-28T04:53:36;7;7;
63662;PMS5003;49815;51.618;0.336;2023-02-28T04:56:01;6;6;
63662;PMS5003;49815;51.618;0.336;2023-02-28T04:58:26;9;9;
63662;PMS5003;49815;51.618;0.336;2023-02-28T05:00:52;13;9;
63662;PMS5003;49815;51.618;0.336;2023-02-28T05:03:18;21;17;
63662;PMS5003;49815;51.618;0.336;2023-02-28T05:05:43;10;7;
63662;PMS5003;49815;51.618;0.336;2023-02-28T05:08:08;11;7;
63662;PMS5003;49815;51.618;0.336;2023-02-28T05:10:33;9;7;
63662;PMS5003;49815;51.618;0.336;2023-02-28T05:12:59;12;10;
63662;PMS5003;49815;51.618;0.336;2023-02-28T05:15:25;9;7;
63662;PMS5003;49815;51.618;0.336;2023-02-28T05:17:50;9;7;
63662;PMS5003;49815;51.618;0.336;2023-02-28T05:20:15;12;9;
63662;PMS5003;49815;51.618;0.336;2023-02-28T05:22:41;12;10;
63662;PMS5003;49815;51.618;0.336;2023-02-28T05:25:08;12;12;
63662;PMS5003;49815;51.618;0.336;2023-02-28T05:27:33;12;11;
63662;PMS5003;49815;51.618;0.336;2023-02-28T05:29:58;11;11;
63662;PMS5003;49815;51.618;0.336;2023-02-28T05:32:24;15;14;
63662;PMS5003;49815;51.618;0.336;2023-02-28T05:34:49;16;12;
63662;PMS5003;49815;51.618;0.336;2023-02-28T05:37:15;10;10;
63662;PMS5003;49815;51.618;0.336;2023-02-28T05:39:40;14;14;
63662;PMS5003;49815;51.618;0.336;2023-02-28T05:42:06;20;15;
63662;PMS5003;49815;51.618;0.336;2023-02-28T05:44:32;14;12;
63662;PMS5003;49815;51.618;0.336;2023-02-28T05:46:58;19;12;
63662;PMS5003;49815;51.618;0.336;2023-02-28T05:49:23;15;14;
63662;PMS5003;49815;51.618;0.336;2023-02-28T05:51:49;16;14;
63662;PMS5003;49815;51.618;0.336;2023-02-28T05:54:15;15;15;
63662;PMS5003;49815;51.618;0.336;2023-02-28T05:56:40;19;14;
63662;PMS5003;49815;51.618;0.336;2023-02-28T05:59:06;15;14;
63662;PMS5003;49815;51.618;0.336;2023-02-28T06:01:32;15;15;
63662;PMS5003;49815;51.618;0.336;2023-02-28T06:03:58;15;15;
63662;PMS5003;49815;51.618;0.336;2023-02-28T06:06:23;15;14;
63662;PMS5003;49815;51.618;0.336;2023-02-28T06:08:49;16;15;
63662;PMS5003;49815;51.618;0.336;2023-02-28T06:11:14;20;15;
63662;PMS5003;49815;51.618;0.336;2023-02-28T06:13:40;17;17;
63662;PMS5003;49815;51.618;0.336;2023-02-28T06:16:07;19;14;
63662;PMS5003;49815;51.618;0.336;2023-02-28T06:18:32;15;15;
63662;PMS5003;49815;51.618;0.336;2023-02-28T06:20:57;19;15;
63662;PMS5003;49815;51.618;0.336;2023-02-28T06:23:23;20;17;
63662;PMS5003;49815;51.618;0.336;2023-02-28T06:25:48;16;16;
63662;PMS5003;49815;51.618;0.336;2023-02-28T06:28:15;17;14;
63662;PMS5003;49815;51.618;0.336;2023-02-28T06:30:39;19;15;
63662;PMS5003;49815;51.618;0.336;2023-02-28T06:33:05;17;15;
63662;PMS5003;49815;51.618;0.336;2023-02-28T06:35:31;12;12;
63662;PMS5003;49815;51.618;0.336;2023-02-28T06:37:57;15;15;
63662;PMS5003;49815;51.618;0.336;2023-02-28T06:40:22;26;26;
63662;PMS5003;49815;51.618;0.336;2023-02-28T06:42:48;15;13;
63662;PMS5003;49815;51.618;0.336;2023-02-28T06:45:14;15;14;
63662;PMS5003;49815;51.618;0.336;2023-02-28T06:47:40;15;15;
63662;PMS5003;49815;51.618;0.336;2023-02-28T06:50:05;19;19;
63662;PMS5003;49815;51.618;0.336;2023-02-28T06:52:30;16;13;
63662;PMS5003;49815;51.618;0.336;2023-02-28T06:54:56;12;10;
63662;PMS5003;49815;51.618;0.336;2023-02-28T06:57:22;21;16;
63662;PMS5003;49815;51.618;0.336;2023-02-28T06:59:47;13;13;
63662;PMS5003;49815;51.618;0.336;2023-02-28T07:02:12;20;18;
63662;PMS5003;49815;51.618;0.336;2023-02-28T07:04:38;16;12;
63662;PMS5003;49815;51.618;0.336;2023-02-28T07:07:04;12;11;
63662;PMS5003;49815;51.618;0.336;2023-02-28T07:09:30;14;12;
63662;PMS5003;49815;51.618;0.336;2023-02-28T07:11:55;15;15;
63662;PMS5003;49815;51.618;0.336;2023-02-28T07:14:21;17;15;
63662;PMS5003;49815;51.618;0.336;2023-02-28T07:16:46;19;17;
63662;PMS5003;49815;51.618;0.336;2023-02-28T07:19:12;21;20;
63662;PMS5003;49815;51.618;0.336;2023-02-28T07:21:37;20;18;
63662;PMS5003;49815;51.618;0.336;2023-02-28T07:24:02;17;16;
63662;PMS5003;49815;51.618;0.336;2023-02-28T07:26:27;17;17;
63662;PMS5003;49815;51.618;0.336;2023-02-28T07:28:53;22;16;
63662;PMS5003;49815;51.618;0.336;2023-02-28T07:31:18;55;55;
63662;PMS5003;49815;51.618;0.336;2023-02-28T07:33:44;30;29;
63662;PMS5003;49815;51.618;0.336;2023-02-28T07:36:10;44;41;
63662;PMS5003;49815;51.618;0.336;2023-02-28T07:38:35;17;17;
63662;PMS5003;49815;51.618;0.336;2023-02-28T07:41:01;31;26;
63662;PMS5003;49815;51.618;0.336;2023-02-28T07:43:26;13;12;
63662;PMS5003;49815;51.618;0.336;2023-02-28T07:45:52;12;12;
63662;PMS5003;49815;51.618;0.336;2023-02-28T07:48:18;11;7;
63662;PMS5003;49815;51.618;0.336;2023-02-28T07:50:43;6;6;
63662;PMS5003;49815;51.618;0.336;2023-02-28T07:53:09;7;7;
63662;PMS5003;49815;51.618;0.336;2023-02-28T07:55:35;6;4;
63662;PMS5003;49815;51.618;0.336;2023-02-28T07:58:00;6;6;
63662;PMS5003;49815;51.618;0.336;2023-02-28T08:00:26;4;4;
63662;PMS5003;49815;51.618;0.336;2023-02-28T08:02:52;6;6;
63662;PMS5003;49815;51.618;0.336;2023-02-28T08:05:18;3;3;
63662;PMS5003;49815;51.618;0.336;2023-02-28T08:07:43;6;6;
63662;PMS5003;49815;51.618;0.336;2023-02-28T08:10:10;3;3;
63662;PMS5003;49815;51.618;0.336;2023-02-28T08:12:35;6;3;
63662;PMS5003;49815;51.618;0.336;2023-02-28T08:15:01;4;3;
63662;PMS5003;49815;51.618;0.336;2023-02-28T08:17:26;4;4;
63662;PMS5003;49815;51.618;0.336;2023-02-28T08:19:52;4;3;
63662;PMS5003;49815;51.618;0.336;2023-02-28T08:22:18;7;4;
63662;PMS5003;49815;51.618;0.336;2023-02-28T08:24:44;4;4;
63662;PMS5003;49815;51.618;0.336;2023-02-28T08:27:09;13;12;
63662;PMS5003;49815;51.618;0.336;2023-02-28T08:29:36;10;10;
63662;PMS5003;49815;51.618;0.336;2023-02-28T08:32:01;4;3;
63662;PMS5003;49815;51.618;0.336;2023-02-28T08:34:26;31;31;
63662;PMS5003;49815;51.618;0.336;2023-02-28T08:36:52;10;10;
63662;PMS5003;49815;51.618;0.336;2023-02-28T08:39:18;4;4;
63662;PMS5003;49815;51.618;0.336;2023-02-28T08:41:43;3;3;
63662;PMS5003;49815;51.618;0.336;2023-02-28T08:44:09;9;9;
63662;PMS5003;49815;51.618;0.336;2023-02-28T08:46:35;8;7;
63662;PMS5003;49815;51.618;0.336;2023-02-28T08:49:01;6;4;
63662;PMS5003;49815;51.618;0.336;2023-02-28T08:51:27;2;2;
63662;PMS5003;49815;51.618;0.336;2023-02-28T08:53:52;3;3;
63662;PMS5003;49815;51.618;0.336;2023-02-28T08:56:17;2;2;
63662;PMS5003;49815;51.618;0.336;2023-02-28T08:58:43;4;3;
63662;PMS5003;49815;51.618;0.336;2023-02-28T09:01:09;2;2;
63662;PMS5003;49815;51.618;0.336;2023-02-28T09:03:34;3;3;
63662;PMS5003;49815;51.618;0.336;2023-02-28T09:06:00;4;3;
63662;PMS5003;49815;51.618;0.336;2023-02-28T09:08:26;2;2;
63662;PMS5003;49815;51.618;0.336;2023-02-28T09:10:51;5;3;
63662;PMS5003;49815;51.618;0.336;2023-02-28T09:13:17;4;4;
63662;PMS5003;49815;51.618;0.336;2023-02-28T09:15:42;2;2;
63662;PMS5003;49815;51.618;0.336;2023-02-28T09:18:08;4;3;
63662;PMS5003;49815;51.618;0.336;2023-02-28T09:20:34;5;5;
63662;PMS5003;49815;51.618;0.336;2023-02-28T09:22:59;3;3;
63662;PMS5003;49815;51.618;0.336;2023-02-28T09:25:25;3;3;
63662;PMS5003;49815;51.618;0.336;2023-02-28T09:27:50;3;3;
63662;PMS5003;49815;51.618;0.336;2023-02-28T09:30:16;3;3;
63662;PMS5003;49815;51.618;0.336;2023-02-28T09:32:42;5;4;
63662;PMS5003;49815;51.618;0.336;2023-02-28T09:35:08;4;3;
63662;PMS5003;49815;51.618;0.336;2023-02-28T09:37:33;3;3;
63662;PMS5003;49815;51.618;0.336;2023-02-28T09:39:59;3;3;
63662;PMS5003;49815;51.618;0.336;2023-02-28T09:42:25;5;5;
63662;PMS5003;49815;51.618;0.336;2023-02-28T09:44:50;4;2;
63662;PMS5003;49815;51.618;0.336;2023-02-28T09:47:17;3;3;
63662;PMS5003;49815;51.618;0.336;2023-02-28T09:49:42;4;4;
63662;PMS5003;49815;51.618;0.336;2023-02-28T09:52:09;2;2;
63662;PMS5003;49815;51.618;0.336;2023-02-28T09:54:33;4;4;
63662;PMS5003;49815;51.618;0.336;2023-02-28T09:56:59;4;2;
63662;PMS5003;49815;51.618;0.336;2023-02-28T09:59:29;5;5;
63662;PMS5003;49815;51.618;0.336;2023-02-28T10:01:50;8;5;
63662;PMS5003;49815;51.618;0.336;2023-02-28T10:04:16;4;4;
63662;PMS5003;49815;51.618;0.336;2023-02-28T10:06:41;5;4;
63662;PMS5003;49815;51.618;0.336;2023-02-28T10:09:07;5;4;
63662;PMS5003;49815;51.618;0.336;2023-02-28T10:11:32;4;4;
63662;PMS5003;49815;51.618;0.336;2023-02-28T10:13:59;3;3;
63662;PMS5003;49815;51.618;0.336;2023-02-28T10:16:25;3;3;
63662;PMS5003;49815;51.618;0.336;2023-02-28T10:18:51;3;3;
63662;PMS5003;49815;51.618;0.336;2023-02-28T10:21:17;4;3;
63662;PMS5003;49815;51.618;0.336;2023-02-28T10:23:40;4;3;
63662;PMS5003;49815;51.618;0.336;2023-02-28T10:26:09;4;3;
63662;PMS5003;49815;51.618;0.336;2023-02-28T10:28:31;3;3;
63662;PMS5003;49815;51.618;0.336;2023-02-28T10:30:57;2;2;
63662;PMS5003;49815;51.618;0.336;2023-02-28T10:33:24;3;3;
63662;PMS5003;49815;51.618;0.336;2023-02-28T10:35:48;3;3;
63662;PMS5003;49815;51.618;0.336;2023-02-28T10:38:16;2;2;
63662;PMS5003;49815;51.618;0.336;2023-02-28T10:40:40;7;4;
63662;PMS5003;49815;51.618;0.336;2023-02-28T10:43:11;3;3;
63662;PMS5003;49815;51.618;0.336;2023-02-28T10:45:31;5;3;
63662;PMS5003;49815;51.618;0.336;2023-02-28T10:47:57;4;4;
63662;PMS5003;49815;51.618;0.336;2023-02-28T10:52:48;5;4;
63662;PMS5003;49815;51.618;0.336;2023-02-28T10:55:15;2;2;
63662;PMS5003;49815;51.618;0.336;2023-02-28T10:57:39;4;4;
63662;PMS5003;49815;51.618;0.336;2023-02-28T11:00:08;3;3;
63662;PMS5003;49815;51.618;0.336;2023-02-28T11:02:32;7;4;
63662;PMS5003;49815;51.618;0.336;2023-02-28T11:04:56;5;4;
63662;PMS5003;49815;51.618;0.336;2023-02-28T11:07:22;4;4;
63662;PMS5003;49815;51.618;0.336;2023-02-28T11:09:48;5;5;
63662;PMS5003;49815;51.618;0.336;2023-02-28T11:14:40;3;3;
63662;PMS5003;49815;51.618;0.336;2023-02-28T11:19:31;5;5;
63662;PMS5003;49815;51.618;0.336;2023-02-28T11:21:56;6;5;
63662;PMS5003;49815;51.618;0.336;2023-02-28T11:24:22;7;7;
63662;PMS5003;49815;51.618;0.336;2023-02-28T11:26:47;8;5;
63662;PMS5003;49815;51.618;0.336;2023-02-28T11:29:17;4;3;
63662;PMS5003;49815;51.618;0.336;2023-02-28T11:31:38;7;5;
63662;PMS5003;49815;51.618;0.336;2023-02-28T11:34:07;5;5;
63662;PMS5003;49815;51.618;0.336;2023-02-28T11:36:30;7;7;
63662;PMS5003;49815;51.618;0.336;2023-02-28T11:38:56;7;4;
63662;PMS5003;49815;51.618;0.336;2023-02-28T11:41:24;4;4;
63662;PMS5003;49815;51.618;0.336;2023-02-28T11:43:52;5;5;
63662;PMS5003;49815;51.618;0.336;2023-02-28T11:46:16;4;4;
63662;PMS5003;49815;51.618;0.336;2023-02-28T11:48:40;5;5;
63662;PMS5003;49815;51.618;0.336;2023-02-28T11:51:06;4;4;
63662;PMS5003;49815;51.618;0.336;2023-02-28T11:53:35;5;3;
63662;PMS5003;49815;51.618;0.336;2023-02-28T11:55:55;4;4;
63662;PMS5003;49815;51.618;0.336;2023-02-28T11:58:25;6;4;
63662;PMS5003;49815;51.618;0.336;2023-02-28T12:00:53;4;4;
63662;PMS5003;49815;51.618;0.336;2023-02-28T12:03:15;4;4;
63662;PMS5003;49815;51.618;0.336;2023-02-28T12:05:38;4;4;
63662;PMS5003;49815;51.618;0.336;2023-02-28T12:08:06;5;5;
63662;PMS5003;49815;51.618;0.336;2023-02-28T12:10:28;5;4;
63662;PMS5003;49815;51.618;0.336;2023-02-28T12:12:57;6;6;
63662;PMS5003;49815;51.618;0.336;2023-02-28T12:17:48;3;3;
63662;PMS5003;49815;51.618;0.336;2023-02-28T12:20:13;4;4;
63662;PMS5003;49815;51.618;0.336;2023-02-28T12:22:37;3;3;
63662;PMS5003;49815;51.618;0.336;2023-02-28T12:27:28;3;3;
63662;PMS5003;49815;51.618;0.336;2023-02-28T12:29:54;4;3;
63662;PMS5003;49815;51.618;0.336;2023-02-28T12:32:19;4;4;
63662;PMS5003;49815;51.618;0.336;2023-02-28T12:34:45;5;4;
63662;PMS5003;49815;51.618;0.336;2023-02-28T12:37:12;3;3;
63662;PMS5003;49815;51.618;0.336;2023-02-28T12:39:36;2;2;
63662;PMS5003;49815;51.618;0.336;2023-02-28T12:42:01;2;2;
63662;PMS5003;49815;51.618;0.336;2023-02-28T12:44:28;4;4;
63662;PMS5003;49815;51.618;0.336;2023-02-28T12:46:53;2;2;
63662;PMS5003;49815;51.618;0.336;2023-02-28T12:49:19;3;3;
63662;PMS5003;49815;51.618;0.336;2023-02-28T12:51:43;3;3;
63662;PMS5003;49815;51.618;0.336;2023-02-28T12:54:11;3;3;
63662;PMS5003;49815;51.618;0.336;2023-02-28T12:56:37;6;4;
63662;PMS5003;49815;51.618;0.336;2023-02-28T12:59:01;2;2;
63662;PMS5003;49815;51.618;0.336;2023-02-28T13:01:32;4;4;
63662;PMS5003;49815;51.618;0.336;2023-02-28T13:03:54;2;2;
63662;PMS5003;49815;51.618;0.336;2023-02-28T13:06:20;2;2;
63662;PMS5003;49815;51.618;0.336;2023-02-28T13:11:07;2;2;
63662;PMS5003;49815;51.618;0.336;2023-02-28T13:13:33;4;4;
63662;PMS5003;49815;51.618;0.336;2023-02-28T13:15:59;4;2;
63662;PMS5003;49815;51.618;0.336;2023-02-28T13:18:27;3;3;
63662;PMS5003;49815;51.618;0.336;2023-02-28T13:20:50;4;3;
63662;PMS5003;49815;51.618;0.336;2023-02-28T13:28:08;3;3;
63662;PMS5003;49815;51.618;0.336;2023-02-28T13:37:49;2;2;
63662;PMS5003;49815;51.618;0.336;2023-02-28T13:47:31;1;1;
63662;PMS5003;49815;51.618;0.336;2023-02-28T13:52:23;5;4;
63662;PMS5003;49815;51.618;0.336;2023-02-28T13:54:56;8;4;
63662;PMS5003;49815;51.618;0.336;2023-02-28T13:57:18;4;4;
63662;PMS5003;49815;51.618;0.336;2023-02-28T13:59:43;5;2;
63662;PMS5003;49815;51.618;0.336;2023-02-28T14:04:37;2;2;
63662;PMS5003;49815;51.618;0.336;2023-02-28T14:06:56;3;3;
63662;PMS5003;49815;51.618;0.336;2023-02-28T14:09:23;2;2;
63662;PMS5003;49815;51.618;0.336;2023-02-28T14:11:47;2;2;
63662;PMS5003;49815;51.618;0.336;2023-02-28T14:16:39;2;2;
63662;PMS5003;49815;51.618;0.336;2023-02-28T14:19:05;4;4;
63662;PMS5003;49815;51.618;0.336;2023-02-28T14:21:30;3;3;
63662;PMS5003;49815;51.618;0.336;2023-02-28T14:24:06;3;3;
63662;PMS5003;49815;51.618;0.336;2023-02-28T14:28:49;5;4;
63662;PMS5003;49815;51.618;0.336;2023-02-28T14:31:12;3;3;
63662;PMS5003;49815;51.618;0.336;2023-02-28T14:33:44;4;3;
63662;PMS5003;49815;51.618;0.336;2023-02-28T14:36:08;2;2;
63662;PMS5003;49815;51.618;0.336;2023-02-28T14:38:30;2;2;
63662;PMS5003;49815;51.618;0.336;2023-02-28T14:40:54;2;2;
63662;PMS5003;49815;51.618;0.336;2023-02-28T14:43:20;4;3;
63662;PMS5003;49815;51.618;0.336;2023-02-28T14:45:48;4;3;
63662;PMS5003;49815;51.618;0.336;2023-02-28T14:48:11;3;3;
63662;PMS5003;49815;51.618;0.336;2023-02-28T14:50:36;3;3;
63662;PMS5003;49815;51.618;0.336;2023-02-28T14:53:02;1;1;
63662;PMS5003;49815;51.618;0.336;2023-02-28T14:55:29;3;3;
63662;PMS5003;49815;51.618;0.336;2023-02-28T14:57:54;3;2;
63662;PMS5003;49815;51.618;0.336;2023-02-28T15:00:22;4;2;
63662;PMS5003;49815;51.618;0.336;2023-02-28T15:02:44;4;4;
63662;PMS5003;49815;51.618;0.336;2023-02-28T15:07:36;3;3;
63662;PMS5003;49815;51.618;0.336;2023-02-28T15:10:07;2;2;
63662;PMS5003;49815;51.618;0.336;2023-02-28T15:12:27;3;2;
63662;PMS5003;49815;51.618;0.336;2023-02-28T15:14:52;3;3;
63662;PMS5003;49815;51.618;0.336;2023-02-28T15:17:20;3;2;
63662;PMS5003;49815;51.618;0.336;2023-02-28T15:19:43;4;3;
63662;PMS5003;49815;51.618;0.336;2023-02-28T15:22:12;2;2;
63662;PMS5003;49815;51.618;0.336;2023-02-28T15:24:36;4;3;
63662;PMS5003;49815;51.618;0.336;2023-02-28T15:27:02;4;4;
63662;PMS5003;49815;51.618;0.336;2023-02-28T15:29:26;2;2;
63662;PMS5003;49815;51.618;0.336;2023-02-28T15:31:55;6;4;
63662;PMS5003;49815;51.618;0.336;2023-02-28T15:34:19;3;3;
63662;PMS5003;49815;51.618;0.336;2023-02-28T15:36:43;8;8;
63662;PMS5003;49815;51.618;0.336;2023-02-28T15:41:35;6;4;
63662;PMS5003;49815;51.618;0.336;2023-02-28T15:46:25;6;4;
63662;PMS5003;49815;51.618;0.336;2023-02-28T15:48:51;4;4;
63662;PMS5003;49815;51.618;0.336;2023-02-28T15:51:16;4;4;
63662;PMS5003;49815;51.618;0.336;2023-02-28T15:53:47;2;2;
63662;PMS5003;49815;51.618;0.336;2023-02-28T15:56:12;3;3;
63662;PMS5003;49815;51.618;0.336;2023-02-28T15:58:33;3;3;
63662;PMS5003;49815;51.618;0.336;2023-02-28T16:01:00;3;3;
63662;PMS5003;49815;51.618;0.336;2023-02-28T16:03:24;2;2;
63662;PMS5003;49815;51.618;0.336;2023-02-28T16:08:15;4;2;
63662;PMS5003;49815;51.618;0.336;2023-02-28T16:10:40;2;1;
63662;PMS5003;49815;51.618;0.336;2023-02-28T16:13:06;3;2;
63662;PMS5003;49815;51.618;0.336;2023-02-28T16:15:34;1;1;
63662;PMS5003;49815;51.618;0.336;2023-02-28T16:17:57;2;2;
63662;PMS5003;49815;51.618;0.336;2023-02-28T16:20:24;4;2;
63662;PMS5003;49815;51.618;0.336;2023-02-28T16:22:48;2;2;
63662;PMS5003;49815;51.618;0.336;2023-02-28T16:25:14;1;1;
63662;PMS5003;49815;51.618;0.336;2023-02-28T16:27:39;1;1;
63662;PMS5003;49815;51.618;0.336;2023-02-28T16:30:06;1;1;
63662;PMS5003;49815;51.618;0.336;2023-02-28T16:32:31;2;2;
63662;PMS5003;49815;51.618;0.336;2023-02-28T16:34:56;2;2;
63662;PMS5003;49815;51.618;0.336;2023-02-28T16:37:22;2;2;
63662;PMS5003;49815;51.618;0.336;2023-02-28T16:39:47;3;3;
63662;PMS5003;49815;51.618;0.336;2023-02-28T16:42:15;1;1;
63662;PMS5003;49815;51.618;0.336;2023-02-28T16:44:39;2;2;
63662;PMS5003;49815;51.618;0.336;2023-02-28T16:47:04;3;2;
63662;PMS5003;49815;51.618;0.336;2023-02-28T16:49:30;4;2;
63662;PMS5003;49815;51.618;0.336;2023-02-28T16:51:55;4;2;
63662;PMS5003;49815;51.618;0.336;2023-02-28T16:54:21;2;2;
63662;PMS5003;49815;51.618;0.336;2023-02-28T16:56:47;2;2;
63662;PMS5003;49815;51.618;0.336;2023-02-28T16:59:12;2;2;
63662;PMS5003;49815;51.618;0.336;2023-02-28T17:01:38;2;2;
63662;PMS5003;49815;51.618;0.336;2023-02-28T17:04:03;1;1;
63662;PMS5003;49815;51.618;0.336;2023-02-28T17:06:29;2;2;
63662;PMS5003;49815;51.618;0.336;2023-02-28T17:08:55;2;2;
63662;PMS5003;49815;51.618;0.336;2023-02-28T17:11:20;2;2;
63662;PMS5003;49815;51.618;0.336;2023-02-28T17:13:46;2;2;
63662;PMS5003;49815;51.618;0.336;2023-02-28T17:16:13;2;2;
63662;PMS5003;49815;51.618;0.336;2023-02-28T17:18:37;2;2;
63662;PMS5003;49815;51.618;0.336;2023-02-28T17:21:02;2;2;
63662;PMS5003;49815;51.618;0.336;2023-02-28T17:23:28;2;2;
63662;PMS5003;49815;51.618;0.336;2023-02-28T17:25:54;2;2;
63662;PMS5003;49815;51.618;0.336;2023-02-28T17:28:20;2;2;